sensor_id;sensor_type;location;lat;lon;timestamp;pressure;altitude;pressure_sealevel;temperature;humidity
8756;BME280;4414;42.670;23.228;2022-08-19T00:00:08;44875.81;;;-137.01;60.12
8756;BME280;4414;42.670;23.228;2022-08-19T00:02:35;44854.78;;;-137.01;59.95
8756;BME280;4414;42.670;23.228;2022-08-19T00:05:03;44868.16;;;-137.01;60.51
8756;BME280;4414;42.670;23.228;2022-08-19T00:07:32;44872.00;;;-137.01;60.42
8756;BME280;4414;42.670;23.228;2022-08-19T00:09:58;44858.59;;;-137.01;60.77
8756;BME280;4414;42.670;23.228;2022-08-19T00:12:25;44862.44;;;-137.01;59.24
8756;BME280;4414;42.670;23.228;2022-08-19T00:14:52;44856.69;;;-137.01;59.07
8756;BME280;4414;42.670;23.228;2022-08-19T00:17:19;44873.91;;;-137.01;58.61
8756;BME280;4414;42.670;23.228;2022-08-19T00:19:46;44854.78;;;-137.01;58.21
8756;BME280;4414;42.670;23.228;2022-08-19T00:22:13;44872.00;;;-137.01;59.01
8756;BME280;4414;42.670;23.228;2022-08-19T00:24:42;44872.00;;;-137.01;59.08
8756;BME280;4414;42.670;23.228;2022-08-19T00:27:09;44870.06;;;-137.01;58.30
8756;BME280;4414;42.670;23.228;2022-08-19T00:29:36;44872.00;;;-137.01;58.03
8756;BME280;4414;42.670;23.228;2022-08-19T00:32:03;44860.50;;;-137.01;59.55
8756;BME280;4414;42.670;23.228;2022-08-19T00:34:31;44862.44;;;-137.01;59.80
8756;BME280;4414;42.670;23.228;2022-08-19T00:36:58;44862.44;;;-137.01;60.56
8756;BME280;4414;42.670;23.228;2022-08-19T00:39:25;44864.34;;;-137.01;60.20
8756;BME280;4414;42.670;23.228;2022-08-19T00:41:53;44883.47;;;-137.01;58.96
8756;BME280;4414;42.670;23.228;2022-08-19T00:44:23;44866.25;;;-137.01;58.86
8756;BME280;4414;42.670;23.228;2022-08-19T00:46:51;44868.16;;;-137.01;58.30
8756;BME280;4414;42.670;23.228;2022-08-19T00:49:21;44875.81;;;-137.01;58.35
8756;BME280;4414;42.670;23.228;2022-08-19T00:51:52;44835.66;;;-137.01;59.49
8756;BME280;4414;42.670;23.228;2022-08-19T00:54:20;44868.16;;;-137.01;59.44
8756;BME280;4414;42.670;23.228;2022-08-19T00:56:48;44860.50;;;-137.01;59.56
8756;BME280;4414;42.670;23.228;2022-08-19T00:59:18;44843.28;;;-137.01;58.74
8756;BME280;4414;42.670;23.228;2022-08-19T01:01:45;44873.91;;;-137.01;58.42
8756;BME280;4414;42.670;23.228;2022-08-19T01:04:13;44833.72;;;-137.01;58.53
8756;BME280;4414;42.670;23.228;2022-08-19T01:06:40;44898.75;;;-137.01;58.50
8756;BME280;4414;42.670;23.228;2022-08-19T01:09:08;44854.78;;;-137.01;57.99
8756;BME280;4414;42.670;23.228;2022-08-19T01:11:37;44868.16;;;-137.01;57.70
8756;BME280;4414;42.670;23.228;2022-08-19T01:14:07;44879.63;;;-137.01;57.34
8756;BME280;4414;42.670;23.228;2022-08-19T01:16:37;44870.06;;;-137.01;56.85
8756;BME280;4414;42.670;23.228;2022-08-19T01:19:10;44883.47;;;-137.01;57.50
8756;BME280;4414;42.670;23.228;2022-08-19T01:21:43;44852.88;;;-137.01;56.13
8756;BME280;4414;42.670;23.228;2022-08-19T01:24:14;44860.50;;;-137.01;55.93
8756;BME280;4414;42.670;23.228;2022-08-19T01:26:42;44843.28;;;-137.01;55.67
8756;BME280;4414;42.670;23.228;2022-08-19T01:29:10;44854.78;;;-137.01;55.43
8756;BME280;4414;42.670;23.228;2022-08-19T01:31:37;44858.59;;;-137.01;55.35
8756;BME280;4414;42.670;23.228;2022-08-19T01:34:05;44860.50;;;-137.01;55.41
8756;BME280;4414;42.670;23.228;2022-08-19T01:36:36;44889.19;;;-137.01;56.09
8756;BME280;4414;42.670;23.228;2022-08-19T01:39:06;44852.88;;;-137.01;56.09
8756;BME280;4414;42.670;23.228;2022-08-19T01:41:35;44862.44;;;-137.01;58.87
8756;BME280;4414;42.670;23.228;2022-08-19T01:44:05;44858.59;;;-137.01;58.36
8756;BME280;4414;42.670;23.228;2022-08-19T01:46:32;44883.47;;;-137.01;59.33
8756;BME280;4414;42.670;23.228;2022-08-19T01:48:59;44860.50;;;-137.01;58.47
8756;BME280;4414;42.670;23.228;2022-08-19T01:51:26;44872.00;;;-137.01;58.63
8756;BME280;4414;42.670;23.228;2022-08-19T01:53:53;44854.78;;;-137.01;60.17
8756;BME280;4414;42.670;23.228;2022-08-19T01:56:20;44856.69;;;-137.01;61.31
8756;BME280;4414;42.670;23.228;2022-08-19T01:58:51;44860.50;;;-137.01;60.27
8756;BME280;4414;42.670;23.228;2022-08-19T02:01:19;44860.50;;;-137.01;61.69
8756;BME280;4414;42.670;23.228;2022-08-19T02:03:46;44845.22;;;-137.01;62.30
8756;BME280;4414;42.670;23.228;2022-08-19T02:06:13;44864.34;;;-137.01;62.53
8756;BME280;4414;42.670;23.228;2022-08-19T02:08:42;44860.50;;;-137.01;62.66
8756;BME280;4414;42.670;23.228;2022-08-19T02:11:18;44843.28;;;-137.01;63.91
8756;BME280;4414;42.670;23.228;2022-08-19T02:13:45;44860.50;;;-137.01;61.88
8756;BME280;4414;42.670;23.228;2022-08-19T02:16:14;44850.94;;;-137.01;61.71
8756;BME280;4414;42.670;23.228;2022-08-19T02:18:40;44849.03;;;-137.01;61.92
8756;BME280;4414;42.670;23.228;2022-08-19T02:21:07;44835.66;;;-137.01;61.75
8756;BME280;4414;42.670;23.228;2022-08-19T02:23:34;44854.78;;;-137.01;63.89
8756;BME280;4414;42.670;23.228;2022-08-19T02:26:00;44854.78;;;-137.01;61.20
8756;BME280;4414;42.670;23.228;2022-08-19T02:28:27;44870.06;;;-137.01;61.55
8756;BME280;4414;42.670;23.228;2022-08-19T02:30:54;44864.34;;;-137.01;62.20
8756;BME280;4414;42.670;23.228;2022-08-19T02:33:22;44872.00;;;-137.01;61.46
8756;BME280;4414;42.670;23.228;2022-08-19T02:35:49;44849.03;;;-137.01;62.63
8756;BME280;4414;42.670;23.228;2022-08-19T02:38:15;44872.00;;;-137.01;61.77
8756;BME280;4414;42.670;23.228;2022-08-19T02:40:56;44856.69;;;-137.01;62.70
8756;BME280;4414;42.670;23.228;2022-08-19T02:43:26;44860.50;;;-137.01;62.81
8756;BME280;4414;42.670;23.228;2022-08-19T02:45:53;44852.88;;;-137.01;63.03
8756;BME280;4414;42.670;23.228;2022-08-19T02:48:23;44879.63;;;-137.01;63.81
8756;BME280;4414;42.670;23.228;2022-08-19T02:50:51;44866.25;;;-137.01;63.01
8756;BME280;4414;42.670;23.228;2022-08-19T02:53:21;44860.50;;;-137.01;64.15
8756;BME280;4414;42.670;23.228;2022-08-19T02:55:49;44862.44;;;-137.01;64.67
8756;BME280;4414;42.670;23.228;2022-08-19T02:58:16;44864.34;;;-137.01;65.66
8756;BME280;4414;42.670;23.228;2022-08-19T03:00:44;44833.72;;;-137.01;66.50
8756;BME280;4414;42.670;23.228;2022-08-19T03:03:12;44872.00;;;-137.01;66.65
8756;BME280;4414;42.670;23.228;2022-08-19T03:05:40;44856.69;;;-137.01;66.08
8756;BME280;4414;42.670;23.228;2022-08-19T03:08:07;44858.59;;;-137.01;66.51
8756;BME280;4414;42.670;23.228;2022-08-19T03:10:41;44849.03;;;-137.01;67.22
8756;BME280;4414;42.670;23.228;2022-08-19T03:13:10;44852.88;;;-137.01;67.28
8756;BME280;4414;42.670;23.228;2022-08-19T03:15:40;44843.28;;;-137.01;68.00
8756;BME280;4414;42.670;23.228;2022-08-19T03:18:07;44860.50;;;-137.01;68.52
8756;BME280;4414;42.670;23.228;2022-08-19T03:20:33;44839.47;;;-137.01;69.10
8756;BME280;4414;42.670;23.228;2022-08-19T03:23:02;44829.91;;;-137.01;70.04
8756;BME280;4414;42.670;23.228;2022-08-19T03:25:28;44860.50;;;-137.01;70.39
8756;BME280;4414;42.670;23.228;2022-08-19T03:27:55;44870.06;;;-137.01;69.91
8756;BME280;4414;42.670;23.228;2022-08-19T03:30:22;44839.47;;;-137.01;70.72
8756;BME280;4414;42.670;23.228;2022-08-19T03:32:48;44828.00;;;-137.01;70.75
8756;BME280;4414;42.670;23.228;2022-08-19T03:35:15;44847.13;;;-137.01;71.23
8756;BME280;4414;42.670;23.228;2022-08-19T03:37:42;44841.38;;;-137.01;72.48
8756;BME280;4414;42.670;23.228;2022-08-19T03:40:10;44849.03;;;-137.01;72.96
8756;BME280;4414;42.670;23.228;2022-08-19T03:42:37;44870.06;;;-137.01;72.08
8756;BME280;4414;42.670;23.228;2022-08-19T03:45:08;44845.22;;;-137.01;72.42
8756;BME280;4414;42.670;23.228;2022-08-19T03:47:35;44828.00;;;-137.01;70.34
8756;BME280;4414;42.670;23.228;2022-08-19T03:50:03;44858.59;;;-137.01;69.48
8756;BME280;4414;42.670;23.228;2022-08-19T03:52:30;44845.22;;;-137.01;70.89
8756;BME280;4414;42.670;23.228;2022-08-19T03:54:57;44841.38;;;-137.01;70.29
8756;BME280;4414;42.670;23.228;2022-08-19T03:57:25;44839.47;;;-137.01;71.55
8756;BME280;4414;42.670;23.228;2022-08-19T03:59:52;44862.44;;;-137.01;71.64
8756;BME280;4414;42.670;23.228;2022-08-19T04:02:18;44852.88;;;-137.01;71.78
8756;BME280;4414;42.670;23.228;2022-08-19T04:04:45;44854.78;;;-137.01;71.38
8756;BME280;4414;42.670;23.228;2022-08-19T04:07:13;44852.88;;;-137.01;70.51
8756;BME280;4414;42.670;23.228;2022-08-19T04:09:41;44847.13;;;-137.01;70.96
8756;BME280;4414;42.670;23.228;2022-08-19T04:12:08;44849.03;;;-137.01;70.44
8756;BME280;4414;42.670;23.228;2022-08-19T04:14:36;44881.56;;;-137.01;71.18
8756;BME280;4414;42.670;23.228;2022-08-19T04:17:03;44854.78;;;-137.01;71.01
8756;BME280;4414;42.670;23.228;2022-08-19T04:19:32;44854.78;;;-137.01;71.07
8756;BME280;4414;42.670;23.228;2022-08-19T04:21:59;44879.63;;;-137.01;69.55
8756;BME280;4414;42.670;23.228;2022-08-19T04:24:26;44870.06;;;-137.01;71.27
8756;BME280;4414;42.670;23.228;2022-08-19T04:26:53;44852.88;;;-137.01;70.83
8756;BME280;4414;42.670;23.228;2022-08-19T04:29:21;44889.19;;;-137.01;71.06
8756;BME280;4414;42.670;23.228;2022-08-19T04:31:52;44858.59;;;-137.01;70.98
8756;BME280;4414;42.670;23.228;2022-08-19T04:34:21;44845.22;;;-137.01;71.44
8756;BME280;4414;42.670;23.228;2022-08-19T04:36:48;44860.50;;;-137.01;71.65
8756;BME280;4414;42.670;23.228;2022-08-19T04:39:19;44893.03;;;-137.01;71.29
8756;BME280;4414;42.670;23.228;2022-08-19T04:41:46;44864.34;;;-137.01;71.81
8756;BME280;4414;42.670;23.228;2022-08-19T04:44:42;44883.47;;;-137.01;67.80
8756;BME280;4414;42.670;23.228;2022-08-19T04:47:10;44864.34;;;-137.01;65.28
8756;BME280;4414;42.670;23.228;2022-08-19T04:49:36;44864.34;;;-137.01;64.99
8756;BME280;4414;42.670;23.228;2022-08-19T04:52:03;44852.88;;;-137.01;64.61
8756;BME280;4414;42.670;23.228;2022-08-19T04:54:30;44858.59;;;-137.01;65.93
8756;BME280;4414;42.670;23.228;2022-08-19T04:56:57;44868.16;;;-137.01;67.97
8756;BME280;4414;42.670;23.228;2022-08-19T04:59:24;44852.88;;;-137.01;68.17
8756;BME280;4414;42.670;23.228;2022-08-19T05:01:50;44828.00;;;-137.01;68.55
8756;BME280;4414;42.670;23.228;2022-08-19T05:04:19;44870.06;;;-137.01;67.49
8756;BME280;4414;42.670;23.228;2022-08-19T05:06:47;44881.56;;;-137.01;67.18
8756;BME280;4414;42.670;23.228;2022-08-19T05:09:15;44856.69;;;-137.01;63.86
8756;BME280;4414;42.670;23.228;2022-08-19T05:11:43;44891.13;;;-137.01;64.30
8756;BME280;4414;42.670;23.228;2022-08-19T05:14:10;44854.78;;;-137.01;62.60
8756;BME280;4414;42.670;23.228;2022-08-19T05:16:38;44885.38;;;-137.01;61.95
8756;BME280;4414;42.670;23.228;2022-08-19T05:19:05;44891.13;;;-137.01;63.78
8756;BME280;4414;42.670;23.228;2022-08-19T05:21:51;44904.50;;;-137.01;66.16
8756;BME280;4414;42.670;23.228;2022-08-19T05:24:36;44868.16;;;-137.01;65.56
8756;BME280;4414;42.670;23.228;2022-08-19T05:27:03;44870.06;;;-137.01;64.44
8756;BME280;4414;42.670;23.228;2022-08-19T05:29:32;44908.34;;;-137.01;65.38
8756;BME280;4414;42.670;23.228;2022-08-19T05:32:00;44887.28;;;-137.01;65.81
8756;BME280;4414;42.670;23.228;2022-08-19T05:34:28;44887.28;;;-137.01;64.75
8756;BME280;4414;42.670;23.228;2022-08-19T05:36:58;44883.47;;;-137.01;64.13
8756;BME280;4414;42.670;23.228;2022-08-19T05:39:26;44889.19;;;-137.01;62.96
8756;BME280;4414;42.670;23.228;2022-08-19T05:41:55;44885.38;;;-137.01;62.99
8756;BME280;4414;42.670;23.228;2022-08-19T05:44:23;44891.13;;;-137.01;63.90
8756;BME280;4414;42.670;23.228;2022-08-19T05:46:51;44868.16;;;-137.01;64.18
8756;BME280;4414;42.670;23.228;2022-08-19T05:49:20;44898.75;;;-137.01;64.58
8756;BME280;4414;42.670;23.228;2022-08-19T05:51:48;44898.75;;;-137.01;64.79
8756;BME280;4414;42.670;23.228;2022-08-19T05:54:16;44902.59;;;-137.01;64.56
8756;BME280;4414;42.670;23.228;2022-08-19T05:56:43;44919.81;;;-137.01;63.86
8756;BME280;4414;42.670;23.228;2022-08-19T05:59:13;44885.38;;;-137.01;64.49
8756;BME280;4414;42.670;23.228;2022-08-19T06:01:42;44917.91;;;-137.01;64.38
8756;BME280;4414;42.670;23.228;2022-08-19T06:04:09;44879.63;;;-137.01;63.88
8756;BME280;4414;42.670;23.228;2022-08-19T06:06:36;44883.47;;;-137.01;64.04
8756;BME280;4414;42.670;23.228;2022-08-19T06:09:05;44898.75;;;-137.01;61.92
8756;BME280;4414;42.670;23.228;2022-08-19T06:11:36;44881.56;;;-137.01;61.99
8756;BME280;4414;42.670;23.228;2022-08-19T06:14:07;44906.41;;;-137.01;62.45
8756;BME280;4414;42.670;23.228;2022-08-19T06:16:34;44906.41;;;-137.01;61.70
8756;BME280;4414;42.670;23.228;2022-08-19T06:19:03;44921.72;;;-137.01;62.79
8756;BME280;4414;42.670;23.228;2022-08-19T06:21:32;44912.16;;;-137.01;61.11
8756;BME280;4414;42.670;23.228;2022-08-19T06:23:59;44921.72;;;-137.01;60.65
8756;BME280;4414;42.670;23.228;2022-08-19T06:26:26;44912.16;;;-137.01;60.23
8756;BME280;4414;42.670;23.228;2022-08-19T06:28:54;44942.75;;;-137.01;61.93
8756;BME280;4414;42.670;23.228;2022-08-19T06:31:24;44912.16;;;-137.01;60.61
8756;BME280;4414;42.670;23.228;2022-08-19T06:33:51;44921.72;;;-137.01;60.19
8756;BME280;4414;42.670;23.228;2022-08-19T06:36:20;44919.81;;;-137.01;60.12
8756;BME280;4414;42.670;23.228;2022-08-19T06:38:52;44927.47;;;-137.01;60.57
8756;BME280;4414;42.670;23.228;2022-08-19T06:41:19;44919.81;;;-137.01;60.35
8756;BME280;4414;42.670;23.228;2022-08-19T06:43:46;44917.91;;;-137.01;59.64
8756;BME280;4414;42.670;23.228;2022-08-19T06:46:16;44940.84;;;-137.01;59.10
8756;BME280;4414;42.670;23.228;2022-08-19T06:48:44;44917.91;;;-137.01;58.93
8756;BME280;4414;42.670;23.228;2022-08-19T06:51:11;44929.38;;;-137.01;59.81
8756;BME280;4414;42.670;23.228;2022-08-19T06:53:40;44942.75;;;-137.01;58.72
8756;BME280;4414;42.670;23.228;2022-08-19T06:56:13;44959.97;;;-137.01;57.96
8756;BME280;4414;42.670;23.228;2022-08-19T06:58:40;44956.16;;;-137.01;58.22
8756;BME280;4414;42.670;23.228;2022-08-19T07:01:07;44925.53;;;-137.01;57.88
8756;BME280;4414;42.670;23.228;2022-08-19T07:03:37;44933.19;;;-137.01;57.58
8756;BME280;4414;42.670;23.228;2022-08-19T07:06:06;44929.38;;;-137.01;58.44
8756;BME280;4414;42.670;23.228;2022-08-19T07:08:36;44942.75;;;-137.01;58.73
8756;BME280;4414;42.670;23.228;2022-08-19T07:11:05;44919.81;;;-137.01;57.49
8756;BME280;4414;42.670;23.228;2022-08-19T07:13:33;44942.75;;;-137.01;56.45
8756;BME280;4414;42.670;23.228;2022-08-19T07:16:03;44942.75;;;-137.01;56.29
8756;BME280;4414;42.670;23.228;2022-08-19T07:18:30;44942.75;;;-137.01;56.07
8756;BME280;4414;42.670;23.228;2022-08-19T07:21:04;44929.38;;;-137.01;55.29
8756;BME280;4414;42.670;23.228;2022-08-19T07:23:31;44933.19;;;-137.01;55.26
8756;BME280;4414;42.670;23.228;2022-08-19T07:26:04;44940.84;;;-137.01;55.41
8756;BME280;4414;42.670;23.228;2022-08-19T07:28:31;44954.25;;;-137.01;54.49
8756;BME280;4414;42.670;23.228;2022-08-19T07:30:58;44956.16;;;-137.01;54.38
8756;BME280;4414;42.670;23.228;2022-08-19T07:33:27;44952.31;;;-137.01;53.04
8756;BME280;4414;42.670;23.228;2022-08-19T07:35:55;44969.53;;;-137.01;53.46
8756;BME280;4414;42.670;23.228;2022-08-19T07:38:23;44979.09;;;-137.01;52.76
8756;BME280;4414;42.670;23.228;2022-08-19T07:40:50;44961.88;;;-137.01;52.77
8756;BME280;4414;42.670;23.228;2022-08-19T07:43:17;44982.94;;;-137.01;53.19
8756;BME280;4414;42.670;23.228;2022-08-19T07:45:50;44967.63;;;-137.01;52.61
8756;BME280;4414;42.670;23.228;2022-08-19T07:48:17;44973.38;;;-137.01;52.19
8756;BME280;4414;42.670;23.228;2022-08-19T07:50:44;44977.19;;;-137.01;52.92
8756;BME280;4414;42.670;23.228;2022-08-19T07:53:11;44971.44;;;-137.01;51.04
8756;BME280;4414;42.670;23.228;2022-08-19T07:55:40;44979.09;;;-137.01;50.58
8756;BME280;4414;42.670;23.228;2022-08-19T07:58:06;44986.75;;;-137.01;49.33
8756;BME280;4414;42.670;23.228;2022-08-19T08:00:34;44973.38;;;-137.01;50.28
8756;BME280;4414;42.670;23.228;2022-08-19T08:03:01;45005.88;;;-137.01;50.37
8756;BME280;4414;42.670;23.228;2022-08-19T08:05:27;45005.88;;;-137.01;49.87
8756;BME280;4414;42.670;23.228;2022-08-19T08:08:12;45017.34;;;-137.01;48.41
8756;BME280;4414;42.670;23.228;2022-08-19T08:10:57;44986.75;;;-137.01;48.04
8756;BME280;4414;42.670;23.228;2022-08-19T08:13:25;44981.00;;;-137.01;48.61
8756;BME280;4414;42.670;23.228;2022-08-19T08:15:52;44984.84;;;-137.01;49.21
8756;BME280;4414;42.670;23.228;2022-08-19T08:18:19;45021.19;;;-137.01;47.22
8756;BME280;4414;42.670;23.228;2022-08-19T08:20:46;45011.63;;;-137.01;47.75
8756;BME280;4414;42.670;23.228;2022-08-19T08:23:13;45013.53;;;-137.01;47.52
8756;BME280;4414;42.670;23.228;2022-08-19T08:25:51;45013.53;;;-137.01;47.08
8756;BME280;4414;42.670;23.228;2022-08-19T08:28:19;45025.00;;;-137.01;45.39
8756;BME280;4414;42.670;23.228;2022-08-19T08:30:47;45030.75;;;-137.01;44.73
8756;BME280;4414;42.670;23.228;2022-08-19T08:33:16;45032.66;;;-137.01;42.42
8756;BME280;4414;42.670;23.228;2022-08-19T08:35:43;45028.84;;;-137.01;42.81
8756;BME280;4414;42.670;23.228;2022-08-19T08:38:11;45028.84;;;-137.01;42.52
8756;BME280;4414;42.670;23.228;2022-08-19T08:40:43;45019.28;;;-137.01;43.27
8756;BME280;4414;42.670;23.228;2022-08-19T08:43:21;45030.75;;;-137.01;43.22
8756;BME280;4414;42.670;23.228;2022-08-19T08:45:53;45030.75;;;-137.01;41.43
8756;BME280;4414;42.670;23.228;2022-08-19T08:48:32;45053.69;;;-137.01;42.56
8756;BME280;4414;42.670;23.228;2022-08-19T08:51:05;45038.41;;;-137.01;41.22
8756;BME280;4414;42.670;23.228;2022-08-19T08:53:34;45036.47;;;-137.01;40.23
8756;BME280;4414;42.670;23.228;2022-08-19T08:56:03;45044.13;;;-137.01;39.15
8756;BME280;4414;42.670;23.228;2022-08-19T08:58:37;45019.28;;;-137.01;39.09
8756;BME280;4414;42.670;23.228;2022-08-19T09:01:09;45040.31;;;-137.01;39.05
8756;BME280;4414;42.670;23.228;2022-08-19T09:03:37;45057.53;;;-137.01;38.65
8756;BME280;4414;42.670;23.228;2022-08-19T09:06:07;45074.75;;;-137.01;37.04
8756;BME280;4414;42.670;23.228;2022-08-19T09:08:43;45034.56;;;-137.01;38.36
8756;BME280;4414;42.670;23.228;2022-08-19T09:11:15;45059.44;;;-137.01;37.63
8756;BME280;4414;42.670;23.228;2022-08-19T09:13:54;45046.06;;;-137.01;38.31
8756;BME280;4414;42.670;23.228;2022-08-19T09:16:22;45078.56;;;-137.01;36.99
8756;BME280;4414;42.670;23.228;2022-08-19T09:18:56;45038.41;;;-137.01;37.30
8756;BME280;4414;42.670;23.228;2022-08-19T09:21:24;45059.44;;;-137.01;36.28
8756;BME280;4414;42.670;23.228;2022-08-19T09:23:52;45097.69;;;-137.01;35.03
8756;BME280;4414;42.670;23.228;2022-08-19T09:26:21;45059.44;;;-137.01;34.30
8756;BME280;4414;42.670;23.228;2022-08-19T09:28:51;45047.97;;;-137.01;35.27
8756;BME280;4414;42.670;23.228;2022-08-19T09:31:21;45042.22;;;-137.01;35.41
8756;BME280;4414;42.670;23.228;2022-08-19T09:33:49;45082.41;;;-137.01;35.91
8756;BME280;4414;42.670;23.228;2022-08-19T09:36:17;45078.56;;;-137.01;34.54
8756;BME280;4414;42.670;23.228;2022-08-19T09:38:45;45069.00;;;-137.01;35.18
8756;BME280;4414;42.670;23.228;2022-08-19T09:41:13;45088.13;;;-137.01;33.75
8756;BME280;4414;42.670;23.228;2022-08-19T09:43:43;45063.25;;;-137.01;34.73
8756;BME280;4414;42.670;23.228;2022-08-19T09:46:12;45086.22;;;-137.01;33.71
8756;BME280;4414;42.670;23.228;2022-08-19T09:48:40;45063.25;;;-137.01;33.53
8756;BME280;4414;42.670;23.228;2022-08-19T09:51:09;45076.66;;;-137.01;34.83
8756;BME280;4414;42.670;23.228;2022-08-19T09:53:37;45084.31;;;-137.01;33.53
8756;BME280;4414;42.670;23.228;2022-08-19T09:56:05;45103.44;;;-137.01;35.17
8756;BME280;4414;42.670;23.228;2022-08-19T09:58:32;45090.03;;;-137.01;34.67
8756;BME280;4414;42.670;23.228;2022-08-19T10:01:01;45107.25;;;-137.01;35.46
8756;BME280;4414;42.670;23.228;2022-08-19T10:03:30;45095.78;;;-137.01;34.14
8756;BME280;4414;42.670;23.228;2022-08-19T10:05:59;45120.66;;;-137.01;34.54
8756;BME280;4414;42.670;23.228;2022-08-19T10:08:30;45090.03;;;-137.01;31.69
8756;BME280;4414;42.670;23.228;2022-08-19T10:10:57;45107.25;;;-137.01;31.62
8756;BME280;4414;42.670;23.228;2022-08-19T10:13:27;45113.00;;;-137.01;31.98
8756;BME280;4414;42.670;23.228;2022-08-19T10:15:56;45122.56;;;-137.01;32.36
8756;BME280;4414;42.670;23.228;2022-08-19T10:18:24;45103.44;;;-137.01;32.38
8756;BME280;4414;42.670;23.228;2022-08-19T10:21:03;45143.59;;;-137.01;32.68
8756;BME280;4414;42.670;23.228;2022-08-19T10:23:32;45126.38;;;-137.01;31.31
8756;BME280;4414;42.670;23.228;2022-08-19T10:25:59;45135.94;;;-137.01;31.97
8756;BME280;4414;42.670;23.228;2022-08-19T10:28:26;45139.78;;;-137.01;32.00
8756;BME280;4414;42.670;23.228;2022-08-19T10:30:53;45113.00;;;-137.01;31.72
8756;BME280;4414;42.670;23.228;2022-08-19T10:33:20;45114.91;;;-137.01;32.32
8756;BME280;4414;42.670;23.228;2022-08-19T10:35:46;45128.31;;;-137.01;31.61
8756;BME280;4414;42.670;23.228;2022-08-19T10:38:15;45132.13;;;-137.01;31.85
8756;BME280;4414;42.670;23.228;2022-08-19T10:40:42;45116.81;;;-137.01;31.57
8756;BME280;4414;42.670;23.228;2022-08-19T10:43:09;45116.81;;;-137.01;31.98
8756;BME280;4414;42.670;23.228;2022-08-19T10:45:36;45120.66;;;-137.01;31.64
8756;BME280;4414;42.670;23.228;2022-08-19T10:48:03;45114.91;;;-137.01;30.79
8756;BME280;4414;42.670;23.228;2022-08-19T10:50:30;45145.53;;;-137.01;30.74
8756;BME280;4414;42.670;23.228;2022-08-19T10:53:15;45139.78;;;-137.01;32.36
8756;BME280;4414;42.670;23.228;2022-08-19T10:55:44;45151.25;;;-137.01;31.07
8756;BME280;4414;42.670;23.228;2022-08-19T10:58:28;45147.44;;;-137.01;30.76
8756;BME280;4414;42.670;23.228;2022-08-19T11:00:57;45147.44;;;-137.01;31.38
8756;BME280;4414;42.670;23.228;2022-08-19T11:03:25;45139.78;;;-137.01;31.18
8756;BME280;4414;42.670;23.228;2022-08-19T11:05:59;45151.25;;;-137.01;31.00
8756;BME280;4414;42.670;23.228;2022-08-19T11:08:27;45132.13;;;-137.01;31.79
8756;BME280;4414;42.670;23.228;2022-08-19T11:10:59;45160.81;;;-137.01;32.17
8756;BME280;4414;42.670;23.228;2022-08-19T11:13:29;45158.91;;;-137.01;31.94
8756;BME280;4414;42.670;23.228;2022-08-19T11:15:57;45151.25;;;-137.01;32.31
8756;BME280;4414;42.670;23.228;2022-08-19T11:18:24;45160.81;;;-137.01;31.13
8756;BME280;4414;42.670;23.228;2022-08-19T11:20:51;45178.03;;;-137.01;31.08
8756;BME280;4414;42.670;23.228;2022-08-19T11:23:18;45149.34;;;-137.01;31.44
8756;BME280;4414;42.670;23.228;2022-08-19T11:25:46;45157.00;;;-137.01;30.46
8756;BME280;4414;42.670;23.228;2022-08-19T11:28:13;45145.53;;;-137.01;30.97
8756;BME280;4414;42.670;23.228;2022-08-19T11:30:39;45147.44;;;-137.01;31.82
8756;BME280;4414;42.670;23.228;2022-08-19T11:33:06;45166.56;;;-137.01;30.90
8756;BME280;4414;42.670;23.228;2022-08-19T11:35:39;45116.81;;;-137.01;30.35
8756;BME280;4414;42.670;23.228;2022-08-19T11:38:05;45147.44;;;-137.01;31.84
8756;BME280;4414;42.670;23.228;2022-08-19T11:40:32;45135.94;;;-137.01;32.17
8756;BME280;4414;42.670;23.228;2022-08-19T11:43:00;45143.59;;;-137.01;31.01
8756;BME280;4414;42.670;23.228;2022-08-19T11:45:28;45155.09;;;-137.01;31.75
8756;BME280;4414;42.670;23.228;2022-08-19T11:47:55;45166.56;;;-137.01;31.22
8756;BME280;4414;42.670;23.228;2022-08-19T11:50:22;45130.22;;;-137.01;31.14
8756;BME280;4414;42.670;23.228;2022-08-19T11:52:49;45135.94;;;-137.01;31.06
8756;BME280;4414;42.670;23.228;2022-08-19T11:55:16;45155.09;;;-137.01;30.79
8756;BME280;4414;42.670;23.228;2022-08-19T11:57:45;45141.69;;;-137.01;31.77
8756;BME280;4414;42.670;23.228;2022-08-19T12:00:14;45135.94;;;-137.01;31.39
8756;BME280;4414;42.670;23.228;2022-08-19T12:02:41;45147.44;;;-137.01;30.92
8756;BME280;4414;42.670;23.228;2022-08-19T12:05:08;45176.13;;;-137.01;32.34
8756;BME280;4414;42.670;23.228;2022-08-19T12:07:35;45164.66;;;-137.01;32.59
8756;BME280;4414;42.670;23.228;2022-08-19T12:10:03;45176.13;;;-137.01;32.54
8756;BME280;4414;42.670;23.228;2022-08-19T12:12:29;45166.56;;;-137.01;30.91
8756;BME280;4414;42.670;23.228;2022-08-19T12:14:57;45168.47;;;-137.01;30.80
8756;BME280;4414;42.670;23.228;2022-08-19T12:17:26;45162.72;;;-137.01;31.04
8756;BME280;4414;42.670;23.228;2022-08-19T12:19:54;45174.22;;;-137.01;30.82
8756;BME280;4414;42.670;23.228;2022-08-19T12:22:21;45155.09;;;-137.01;31.42
8756;BME280;4414;42.670;23.228;2022-08-19T12:24:48;45172.28;;;-137.01;32.79
8756;BME280;4414;42.670;23.228;2022-08-19T12:27:17;45178.03;;;-137.01;31.95
8756;BME280;4414;42.670;23.228;2022-08-19T12:29:44;45172.28;;;-137.01;32.33
8756;BME280;4414;42.670;23.228;2022-08-19T12:32:11;45162.72;;;-137.01;31.23
8756;BME280;4414;42.670;23.228;2022-08-19T12:34:39;45166.56;;;-137.01;31.33
8756;BME280;4414;42.670;23.228;2022-08-19T12:37:07;45168.47;;;-137.01;31.16
8756;BME280;4414;42.670;23.228;2022-08-19T12:39:35;45162.72;;;-137.01;30.95
8756;BME280;4414;42.670;23.228;2022-08-19T12:42:03;45191.44;;;-137.01;32.35
8756;BME280;4414;42.670;23.228;2022-08-19T12:44:30;45191.44;;;-137.01;31.37
8756;BME280;4414;42.670;23.228;2022-08-19T12:46:57;45206.72;;;-137.01;31.88
8756;BME280;4414;42.670;23.228;2022-08-19T12:49:24;45174.22;;;-137.01;30.87
8756;BME280;4414;42.670;23.228;2022-08-19T12:51:52;45178.03;;;-137.01;30.13
8756;BME280;4414;42.670;23.228;2022-08-19T12:54:19;45208.66;;;-137.01;29.94
8756;BME280;4414;42.670;23.228;2022-08-19T12:56:46;45158.91;;;-137.01;30.65